createdAt,value
2022-12-24T00:00:33.269Z,1.90
2022-12-24T00:01:33.145Z,1.90
2022-12-24T00:02:33.234Z,2.10
2022-12-24T00:03:33.261Z,1.90
2022-12-24T00:04:33.113Z,1.80
2022-12-24T00:05:33.106Z,1.90
2022-12-24T00:06:33.121Z,2.30
2022-12-24T00:07:33.118Z,2.00
2022-12-24T00:08:33.084Z,2.00
2022-12-24T00:09:33.074Z,2.30
2022-12-24T00:10:33.082Z,2.10
2022-12-24T00:11:33.077Z,2.00
2022-12-24T00:12:33.069Z,2.20
2022-12-24T00:13:33.079Z,2.10
2022-12-24T00:14:33.050Z,2.20
2022-12-24T00:15:33.051Z,2.50
2022-12-24T00:16:33.074Z,1.90
2022-12-24T00:17:33.050Z,1.90
2022-12-24T00:18:33.038Z,2.40
2022-12-24T00:19:33.037Z,2.40
2022-12-24T00:20:33.023Z,2.20
2022-12-24T00:21:33.001Z,2.30
2022-12-24T00:22:32.992Z,2.20
2022-12-24T00:23:33.005Z,2.00
2022-12-24T00:24:33.016Z,2.40
2022-12-24T00:25:32.998Z,2.00
2022-12-24T00:26:33.006Z,1.90
2022-12-24T00:27:32.964Z,2.70
2022-12-24T00:28:32.971Z,2.10
2022-12-24T00:29:32.956Z,2.00
2022-12-24T00:30:32.999Z,2.60
2022-12-24T00:31:33.010Z,2.10
2022-12-24T00:32:32.964Z,2.30
2022-12-24T00:33:32.944Z,2.00
2022-12-24T00:34:32.940Z,2.00
2022-12-24T00:35:32.930Z,2.00
2022-12-24T00:36:32.954Z,2.20
2022-12-24T00:37:32.957Z,2.00
2022-12-24T00:38:32.899Z,2.00
2022-12-24T00:39:32.942Z,2.00
2022-12-24T00:40:32.946Z,2.30
2022-12-24T00:41:32.897Z,2.50
2022-12-24T00:42:32.872Z,2.50
2022-12-24T00:43:32.898Z,2.20
2022-12-24T00:44:32.871Z,2.30
2022-12-24T00:45:32.888Z,2.10
2022-12-24T00:46:32.970Z,1.90
2022-12-24T00:47:32.908Z,2.00
2022-12-24T00:48:32.873Z,2.20
2022-12-24T00:49:32.880Z,1.90
2022-12-24T00:50:32.819Z,2.00
2022-12-24T00:51:32.955Z,1.80
2022-12-24T00:52:32.840Z,2.20
2022-12-24T00:53:32.830Z,1.90
2022-12-24T00:54:32.806Z,2.20
2022-12-24T00:55:32.835Z,2.00
2022-12-24T00:56:32.822Z,2.10
2022-12-24T00:57:32.810Z,2.30
2022-12-24T00:58:32.802Z,2.60
2022-12-24T00:59:32.784Z,2.40
2022-12-24T01:00:32.770Z,1.80
2022-12-24T01:01:32.893Z,2.10
2022-12-24T01:02:32.990Z,2.10
2022-12-24T01:03:32.813Z,2.30
2022-12-24T01:04:32.748Z,2.20
2022-12-24T01:05:32.757Z,2.10
2022-12-24T01:06:32.738Z,2.50
2022-12-24T01:07:32.726Z,1.80
2022-12-24T01:08:32.712Z,2.10
2022-12-24T01:09:32.714Z,2.40
2022-12-24T01:10:32.694Z,2.00
2022-12-24T01:11:32.692Z,2.00
2022-12-24T01:12:32.681Z,2.40
2022-12-24T01:13:32.737Z,2.00
2022-12-24T01:14:32.663Z,2.50
2022-12-24T01:15:32.692Z,2.00
2022-12-24T01:16:32.765Z,1.90
2022-12-24T01:17:32.645Z,2.60
2022-12-24T01:18:32.662Z,2.20
2022-12-24T01:19:32.656Z,2.00
2022-12-24T01:20:32.631Z,2.20
2022-12-24T01:21:32.638Z,2.20
2022-12-24T01:22:32.618Z,2.30
2022-12-24T01:23:32.623Z,2.00
2022-12-24T01:24:32.620Z,2.50
2022-12-24T01:25:32.595Z,1.90
2022-12-24T01:26:32.636Z,2.10
2022-12-24T01:27:32.622Z,2.10
2022-12-24T01:28:32.580Z,2.40
2022-12-24T01:29:32.582Z,2.00
2022-12-24T01:30:32.565Z,2.60
2022-12-24T01:31:32.605Z,1.90
2022-12-24T01:32:32.559Z,1.90
2022-12-24T01:33:32.563Z,1.90
2022-12-24T01:34:32.543Z,2.00
2022-12-24T01:35:32.549Z,2.10
2022-12-24T01:36:32.533Z,2.50
2022-12-24T01:37:32.542Z,2.70
2022-12-24T01:38:32.549Z,1.90
2022-12-24T01:39:32.520Z,1.90
2022-12-24T01:40:32.504Z,1.90
2022-12-24T01:41:32.519Z,2.20
2022-12-24T01:42:32.486Z,1.80
2022-12-24T01:43:32.516Z,2.20
2022-12-24T01:44:36.713Z,2.10
2022-12-24T01:45:32.489Z,2.40
2022-12-24T01:46:32.578Z,1.90
2022-12-24T01:47:32.472Z,2.20
2022-12-24T01:48:32.450Z,2.30
2022-12-24T01:49:32.448Z,2.30
2022-12-24T01:50:32.448Z,1.90
2022-12-24T01:51:32.432Z,2.30
2022-12-24T01:52:32.469Z,2.30
2022-12-24T01:53:32.447Z,2.00
2022-12-24T01:54:32.439Z,2.00
2022-12-24T01:55:32.413Z,2.10
2022-12-24T01:56:32.403Z,2.20
2022-12-24T01:57:32.409Z,1.90
2022-12-24T01:58:32.394Z,1.90
2022-12-24T01:59:32.419Z,1.90
2022-12-24T02:00:32.382Z,2.00
2022-12-24T02:01:32.471Z,2.00
2022-12-24T02:02:32.521Z,2.30
2022-12-24T02:03:32.421Z,2.10
2022-12-24T02:04:32.366Z,2.80
2022-12-24T02:05:32.356Z,1.80
2022-12-24T02:06:32.336Z,1.80
2022-12-24T02:07:32.347Z,1.90
2022-12-24T02:08:32.328Z,2.20
2022-12-24T02:09:32.337Z,2.00
2022-12-24T02:10:32.333Z,2.10
2022-12-24T02:11:32.317Z,2.20
2022-12-24T02:12:32.298Z,2.10
2022-12-24T02:13:32.316Z,2.10
2022-12-24T02:14:32.316Z,2.40
2022-12-24T02:15:32.282Z,2.00
2022-12-24T02:16:32.367Z,2.10
2022-12-24T02:17:32.289Z,2.50
2022-12-24T02:18:32.284Z,1.70
2022-12-24T02:19:32.271Z,1.80
2022-12-24T02:20:32.275Z,2.00
2022-12-24T02:21:32.246Z,2.00
2022-12-24T02:22:32.236Z,1.70
2022-12-24T02:23:32.272Z,2.30
2022-12-24T02:24:32.224Z,2.40
2022-12-24T02:25:32.225Z,1.90
2022-12-24T02:26:32.215Z,2.20
2022-12-24T02:27:32.220Z,2.00
2022-12-24T02:28:32.197Z,1.80
2022-12-24T02:29:32.217Z,1.80
2022-12-24T02:30:32.183Z,2.00
2022-12-24T02:31:32.210Z,1.70
2022-12-24T02:32:32.189Z,2.00
2022-12-24T02:33:32.163Z,1.80
2022-12-24T02:34:32.161Z,2.50
2022-12-24T02:35:32.164Z,2.20
2022-12-24T02:36:32.162Z,1.80
2022-12-24T02:37:32.140Z,2.00
2022-12-24T02:38:32.130Z,2.00
2022-12-24T02:39:32.116Z,2.60
2022-12-24T02:40:32.120Z,2.00
2022-12-24T02:41:32.128Z,2.10
2022-12-24T02:42:32.097Z,1.90
2022-12-24T02:43:32.097Z,1.90
2022-12-24T02:44:32.080Z,1.90
2022-12-24T02:45:32.079Z,2.70
2022-12-24T02:46:32.128Z,1.80
2022-12-24T02:47:34.266Z,1.80
2022-12-24T02:48:32.080Z,1.80
2022-12-24T02:49:32.043Z,1.60
2022-12-24T02:50:32.050Z,1.90
2022-12-24T02:51:32.039Z,1.90
2022-12-24T02:52:32.026Z,1.80
2022-12-24T02:53:32.046Z,2.30
2022-12-24T02:54:32.012Z,2.20
2022-12-24T02:55:32.024Z,2.20
2022-12-24T02:56:32.013Z,2.20
2022-12-24T02:57:32.003Z,2.10
2022-12-24T02:58:31.993Z,2.00
2022-12-24T02:59:31.988Z,1.80
2022-12-24T03:00:32.027Z,2.00
2022-12-24T03:01:32.189Z,1.80
2022-12-24T03:02:32.095Z,1.80
2022-12-24T03:03:31.954Z,1.90
2022-12-24T03:04:31.955Z,1.90
2022-12-24T03:05:31.961Z,1.90
2022-12-24T03:06:31.929Z,1.90
2022-12-24T03:07:31.943Z,2.10
2022-12-24T03:08:31.917Z,1.70
2022-12-24T03:09:31.920Z,1.80
2022-12-24T03:10:31.913Z,1.90
2022-12-24T03:11:31.888Z,2.00
2022-12-24T03:12:31.930Z,1.90
2022-12-24T03:13:31.897Z,2.30
2022-12-24T03:14:31.881Z,2.20
2022-12-24T03:15:31.876Z,1.90
2022-12-24T03:16:31.939Z,1.80
2022-12-24T03:17:31.867Z,2.00
2022-12-24T03:18:31.871Z,2.10
2022-12-24T03:19:31.843Z,1.70
2022-12-24T03:20:31.856Z,2.00
2022-12-24T03:21:31.833Z,2.00
2022-12-24T03:22:31.821Z,2.10
2022-12-24T03:23:31.873Z,1.90
2022-12-24T03:24:31.815Z,2.30
2022-12-24T03:25:31.802Z,1.70
2022-12-24T03:26:31.823Z,1.90
2022-12-24T03:27:31.802Z,2.00
2022-12-24T03:28:31.786Z,2.10
2022-12-24T03:29:31.792Z,2.30
2022-12-24T03:30:31.792Z,2.20
2022-12-24T03:31:31.826Z,1.90
2022-12-24T03:32:31.766Z,2.40
2022-12-24T03:33:31.767Z,2.00
2022-12-24T03:34:31.750Z,1.80
2022-12-24T03:35:31.769Z,2.10
2022-12-24T03:36:31.743Z,2.40
2022-12-24T03:37:31.741Z,2.00
2022-12-24T03:38:31.733Z,1.80
2022-12-24T03:39:31.726Z,2.10
2022-12-24T03:40:31.703Z,2.20
2022-12-24T03:41:31.725Z,2.20
2022-12-24T03:42:31.700Z,2.00
2022-12-24T03:43:31.699Z,2.00
2022-12-24T03:44:31.683Z,2.10
2022-12-24T03:45:31.731Z,2.30
2022-12-24T03:46:31.667Z,2.90
2022-12-24T03:47:31.680Z,2.30
2022-12-24T03:48:32.852Z,2.30
2022-12-24T03:49:31.651Z,2.00
2022-12-24T03:50:31.643Z,2.30
2022-12-24T03:51:31.645Z,2.20
2022-12-24T03:52:31.652Z,1.60
2022-12-24T03:53:31.661Z,2.50
2022-12-24T03:54:31.646Z,2.50
2022-12-24T03:55:31.616Z,2.10
2022-12-24T03:56:31.611Z,1.90
2022-12-24T03:57:31.606Z,2.60
2022-12-24T03:58:31.600Z,1.70
2022-12-24T03:59:31.587Z,1.80
2022-12-24T04:00:31.611Z,2.30
2022-12-24T04:01:31.628Z,2.40
2022-12-24T04:02:31.668Z,2.10
2022-12-24T04:03:31.662Z,1.90
2022-12-24T04:04:31.554Z,2.20
2022-12-24T04:05:31.575Z,2.00
2022-12-24T04:06:31.577Z,2.20
2022-12-24T04:07:31.539Z,2.30
2022-12-24T04:08:31.533Z,2.20
2022-12-24T04:09:31.525Z,2.10
2022-12-24T04:10:31.508Z,2.10
2022-12-24T04:11:31.533Z,2.20
2022-12-24T04:12:31.529Z,2.00
2022-12-24T04:13:31.524Z,2.20
2022-12-24T04:14:31.499Z,2.40
2022-12-24T04:15:31.484Z,1.90
2022-12-24T04:16:31.605Z,2.10
2022-12-24T04:17:31.507Z,2.20
2022-12-24T04:18:31.486Z,2.20
2022-12-24T04:19:31.469Z,2.30
2022-12-24T04:20:31.450Z,2.30
2022-12-24T04:21:31.450Z,2.20
2022-12-24T04:22:31.472Z,2.20
2022-12-24T04:23:31.443Z,2.10
2022-12-24T04:24:31.432Z,2.00
2022-12-24T04:25:31.451Z,2.30
2022-12-24T04:26:31.411Z,2.50
2022-12-24T04:27:31.403Z,2.40
2022-12-24T04:28:31.389Z,2.50
2022-12-24T04:29:31.412Z,2.10
2022-12-24T04:30:31.411Z,2.60
2022-12-24T04:31:31.426Z,2.50
2022-12-24T04:32:31.384Z,2.10
2022-12-24T04:33:31.371Z,2.10
2022-12-24T04:34:31.367Z,2.10
2022-12-24T04:35:31.354Z,2.10
2022-12-24T04:36:31.371Z,2.10
2022-12-24T04:37:31.380Z,1.90
2022-12-24T04:38:31.341Z,2.40
2022-12-24T04:39:31.328Z,2.40
2022-12-24T04:40:31.317Z,2.10
2022-12-24T04:41:31.312Z,2.40
2022-12-24T04:42:31.332Z,2.10
2022-12-24T04:43:31.303Z,2.20
2022-12-24T04:44:31.292Z,2.40
2022-12-24T04:45:31.375Z,2.20
2022-12-24T04:46:31.286Z,2.30
2022-12-24T04:47:31.302Z,2.20
2022-12-24T04:48:31.272Z,2.60
2022-12-24T04:49:31.272Z,2.30
2022-12-24T04:50:31.274Z,2.80
2022-12-24T04:51:31.256Z,2.30
2022-12-24T04:52:31.264Z,2.50
2022-12-24T04:53:31.245Z,2.10
2022-12-24T04:54:31.242Z,2.40
2022-12-24T04:55:31.220Z,2.20
2022-12-24T04:56:31.216Z,2.30
2022-12-24T04:57:31.209Z,2.10
2022-12-24T04:58:31.208Z,2.50
2022-12-24T04:59:31.207Z,2.10
2022-12-24T05:00:31.210Z,2.50
2022-12-24T05:01:31.334Z,2.20
2022-12-24T05:02:31.367Z,2.60
2022-12-24T05:03:31.252Z,2.30
2022-12-24T05:04:31.174Z,2.20
2022-12-24T05:05:31.168Z,2.50
2022-12-24T05:06:31.173Z,2.70
2022-12-24T05:07:31.146Z,2.40
2022-12-24T05:08:31.143Z,2.30
2022-12-24T05:09:31.160Z,2.00
2022-12-24T05:10:31.135Z,2.20
2022-12-24T05:11:31.169Z,2.40
2022-12-24T05:12:31.104Z,2.60
2022-12-24T05:13:40.440Z,2.10
2022-12-24T05:14:32.119Z,2.30
2022-12-24T05:15:31.107Z,2.20
2022-12-24T05:16:31.155Z,2.20
2022-12-24T05:17:31.077Z,2.00
2022-12-24T05:18:31.066Z,2.40
2022-12-24T05:19:31.075Z,2.20
2022-12-24T05:20:31.050Z,2.20
2022-12-24T05:21:31.049Z,2.30
2022-12-24T05:22:31.087Z,2.40
2022-12-24T05:23:31.045Z,2.40
2022-12-24T05:24:31.023Z,2.20
2022-12-24T05:25:31.034Z,2.10
2022-12-24T05:26:31.040Z,2.10
2022-12-24T05:27:31.014Z,2.60
2022-12-24T05:28:31.009Z,2.10
2022-12-24T05:29:31.009Z,2.40
2022-12-24T05:30:31.051Z,2.10
2022-12-24T05:31:30.992Z,2.00
2022-12-24T05:32:31.014Z,2.30
2022-12-24T05:33:30.968Z,2.40
2022-12-24T05:34:30.958Z,2.40
2022-12-24T05:35:30.953Z,2.20
2022-12-24T05:36:30.951Z,2.40
2022-12-24T05:37:30.937Z,2.20
2022-12-24T05:38:30.947Z,2.20
2022-12-24T05:39:30.925Z,2.40
2022-12-24T05:40:30.920Z,2.40
2022-12-24T05:41:30.911Z,2.60
2022-12-24T05:42:30.930Z,2.80
2022-12-24T05:43:30.922Z,2.00
2022-12-24T05:44:30.908Z,2.10
2022-12-24T05:45:30.884Z,2.40
2022-12-24T05:46:30.928Z,2.40
2022-12-24T05:47:30.874Z,2.60
2022-12-24T05:48:30.872Z,2.10
2022-12-24T05:49:30.881Z,2.60
2022-12-24T05:50:30.858Z,2.40
2022-12-24T05:51:30.858Z,2.50
2022-12-24T05:52:30.846Z,2.50
2022-12-24T05:53:30.871Z,2.20
2022-12-24T05:54:30.832Z,2.70
2022-12-24T05:55:30.830Z,2.40
2022-12-24T05:56:30.810Z,2.60
2022-12-24T05:57:30.809Z,2.90
2022-12-24T05:58:30.799Z,2.60
2022-12-24T05:59:30.838Z,2.40
2022-12-24T06:00:30.805Z,2.10
2022-12-24T06:01:30.804Z,2.90
2022-12-24T06:02:30.893Z,2.60
2022-12-24T06:03:30.757Z,2.80
2022-12-24T06:04:30.770Z,2.50
2022-12-24T06:05:30.781Z,2.40
2022-12-24T06:06:30.782Z,2.10
2022-12-24T06:07:30.753Z,2.40
2022-12-24T06:08:30.717Z,2.50
2022-12-24T06:09:30.739Z,2.40
2022-12-24T06:10:30.704Z,2.40
2022-12-24T06:11:30.731Z,2.60
2022-12-24T06:12:30.742Z,2.30
2022-12-24T06:14:41.029Z,2.90
2022-12-24T06:15:41.110Z,2.50
2022-12-24T06:16:41.121Z,2.20
2022-12-24T06:17:41.058Z,2.50
2022-12-24T06:18:41.021Z,2.50
2022-12-24T06:19:41.041Z,5.70
2022-12-24T06:20:41.019Z,5.00
2022-12-24T06:21:41.007Z,4.40
2022-12-24T06:22:40.998Z,4.10
2022-12-24T06:23:40.991Z,4.00
2022-12-24T06:24:40.998Z,3.20
2022-12-24T06:25:40.980Z,3.10
2022-12-24T06:26:40.968Z,3.30
2022-12-24T06:27:40.966Z,3.20
2022-12-24T06:28:40.960Z,2.80
2022-12-24T06:29:40.980Z,2.20
2022-12-24T06:30:40.965Z,2.40
2022-12-24T06:31:40.987Z,2.30
2022-12-24T06:32:40.934Z,2.30
2022-12-24T06:33:40.943Z,2.30
2022-12-24T06:34:40.934Z,2.50
2022-12-24T06:35:40.948Z,2.70
2022-12-24T06:36:40.922Z,2.40
2022-12-24T06:37:40.942Z,2.70
2022-12-24T06:38:40.908Z,2.70
2022-12-24T06:39:40.901Z,2.40
2022-12-24T06:40:40.905Z,2.40
2022-12-24T06:41:40.900Z,2.70
2022-12-24T06:42:40.887Z,2.70
2022-12-24T06:43:40.919Z,2.40
2022-12-24T06:44:40.876Z,2.50
2022-12-24T06:45:40.877Z,2.50
2022-12-24T06:46:40.950Z,2.30
2022-12-24T06:47:40.855Z,2.00
2022-12-24T06:48:40.843Z,2.30
2022-12-24T06:49:40.868Z,2.20
2022-12-24T06:50:40.831Z,2.60
2022-12-24T06:51:40.820Z,2.20
2022-12-24T06:52:40.813Z,2.50
2022-12-24T06:53:40.823Z,2.10
2022-12-24T06:54:40.812Z,1.70
2022-12-24T06:55:40.838Z,2.00
2022-12-24T06:56:40.788Z,1.50
2022-12-24T06:57:40.781Z,2.10
2022-12-24T06:58:40.817Z,2.00
2022-12-24T06:59:40.787Z,1.60
2022-12-24T07:00:40.776Z,2.00
2022-12-24T07:01:40.881Z,1.60
2022-12-24T07:02:40.793Z,2.00
2022-12-24T07:03:40.822Z,1.90
2022-12-24T07:04:40.760Z,1.60
2022-12-24T07:05:40.758Z,1.60
2022-12-24T07:06:40.725Z,1.50
2022-12-24T07:07:40.721Z,1.60
2022-12-24T07:08:40.720Z,2.10
2022-12-24T07:09:40.715Z,1.80
2022-12-24T07:10:40.750Z,1.90
2022-12-24T07:11:40.723Z,1.50
2022-12-24T07:12:40.720Z,1.70
2022-12-24T07:13:40.690Z,1.70
2022-12-24T07:14:40.678Z,1.30
2022-12-24T07:15:40.777Z,1.90
2022-12-24T07:16:40.814Z,1.40
2022-12-24T07:17:40.750Z,1.70
2022-12-24T07:18:40.686Z,1.90
2022-12-24T07:19:40.660Z,1.60
2022-12-24T07:20:40.644Z,1.50
2022-12-24T07:21:40.644Z,1.50
2022-12-24T07:22:40.651Z,1.20
2022-12-24T07:23:40.647Z,1.10
2022-12-24T07:24:40.617Z,1.70
2022-12-24T07:25:40.616Z,1.60
2022-12-24T07:26:40.632Z,1.50
2022-12-24T07:27:40.597Z,1.30
2022-12-24T07:28:40.625Z,1.60
2022-12-24T07:29:40.586Z,1.20
2022-12-24T07:30:40.585Z,1.30
2022-12-24T07:31:40.645Z,1.40
2022-12-24T07:32:40.604Z,1.30
2022-12-24T07:33:40.559Z,1.60
2022-12-24T07:34:40.583Z,1.40
2022-12-24T07:35:40.546Z,1.30
2022-12-24T07:36:40.543Z,1.40
2022-12-24T07:37:40.563Z,1.20
2022-12-24T07:38:40.539Z,1.30
2022-12-24T07:39:40.536Z,1.60
2022-12-24T07:40:40.541Z,1.20
2022-12-24T07:41:41.881Z,1.50
2022-12-24T07:42:40.528Z,1.40
2022-12-24T07:43:40.506Z,1.20
2022-12-24T07:44:40.506Z,1.40
2022-12-24T07:45:40.486Z,1.40
2022-12-24T07:46:40.554Z,1.40
2022-12-24T07:47:40.474Z,1.70
2022-12-24T07:48:40.475Z,1.40
2022-12-24T07:49:40.462Z,1.20
2022-12-24T07:50:40.488Z,1.30
2022-12-24T07:51:40.454Z,1.30
2022-12-24T07:52:40.443Z,1.40
2022-12-24T07:53:40.452Z,1.30
2022-12-24T07:54:40.433Z,1.80
2022-12-24T07:55:40.430Z,1.30
2022-12-24T07:56:40.444Z,1.40
2022-12-24T07:57:40.436Z,1.80
2022-12-24T07:58:40.399Z,2.00
2022-12-24T07:59:40.401Z,1.80
2022-12-24T08:00:40.388Z,2.40
2022-12-24T08:01:40.501Z,2.40
2022-12-24T08:02:40.567Z,2.00
2022-12-24T08:03:40.517Z,2.10
2022-12-24T08:04:40.396Z,2.40
2022-12-24T08:05:40.360Z,2.00
2022-12-24T08:06:40.391Z,1.80
2022-12-24T08:07:40.364Z,1.60
2022-12-24T08:08:40.372Z,1.60
2022-12-24T08:09:40.354Z,2.50
2022-12-24T08:10:40.351Z,2.20
2022-12-24T08:11:42.454Z,2.30
2022-12-24T08:12:41.336Z,1.60
2022-12-24T08:13:40.334Z,1.40
2022-12-24T08:14:40.310Z,1.30
2022-12-24T08:15:40.307Z,1.20
2022-12-24T08:16:40.329Z,1.30
2022-12-24T08:17:40.308Z,1.20
2022-12-24T08:18:40.283Z,1.20
2022-12-24T08:19:40.309Z,1.30
2022-12-24T08:20:40.269Z,1.40
2022-12-24T08:21:40.274Z,1.40
2022-12-24T08:22:40.267Z,1.80
2022-12-24T08:23:40.278Z,1.50
2022-12-24T08:24:40.243Z,1.80
2022-12-24T08:25:40.255Z,1.40
2022-12-24T08:26:40.244Z,1.40
2022-12-24T08:27:40.247Z,1.20
2022-12-24T08:28:40.232Z,1.60
2022-12-24T08:29:40.226Z,1.50
2022-12-24T08:30:40.217Z,1.60
2022-12-24T08:31:40.309Z,1.10
2022-12-24T08:32:40.218Z,1.10
2022-12-24T08:33:40.190Z,1.10
2022-12-24T08:34:40.279Z,1.20
2022-12-24T08:35:40.174Z,2.00
2022-12-24T08:36:40.157Z,2.00
2022-12-24T08:37:40.189Z,1.90
2022-12-24T08:38:40.189Z,1.40
2022-12-24T08:39:40.160Z,2.10
2022-12-24T08:40:40.145Z,3.40
2022-12-24T08:41:40.147Z,2.40
2022-12-24T08:42:40.173Z,2.00
2022-12-24T08:43:40.148Z,2.00
2022-12-24T08:44:40.142Z,1.60
2022-12-24T08:45:41.126Z,1.60
2022-12-24T08:46:40.192Z,1.40
2022-12-24T08:47:40.110Z,1.50
2022-12-24T08:48:40.119Z,1.60
2022-12-24T08:49:40.110Z,1.50
2022-12-24T08:50:40.082Z,1.50
2022-12-24T08:51:40.078Z,1.30
2022-12-24T08:52:40.112Z,1.40
2022-12-24T08:53:40.060Z,1.70
2022-12-24T08:54:40.099Z,2.40
2022-12-24T08:55:40.075Z,3.10
2022-12-24T08:56:40.072Z,2.40
2022-12-24T08:57:40.053Z,2.80
2022-12-24T08:58:40.031Z,2.30
2022-12-24T08:59:40.046Z,1.80
2022-12-24T09:00:40.097Z,1.90
2022-12-24T09:01:40.072Z,1.80
2022-12-24T09:02:40.167Z,2.00
2022-12-24T09:03:40.049Z,1.60
2022-12-24T09:04:40.018Z,1.50
2022-12-24T09:05:39.984Z,1.40
2022-12-24T09:06:40.004Z,1.40
2022-12-24T09:07:39.979Z,1.40
2022-12-24T09:08:39.962Z,1.30
2022-12-24T09:09:40.000Z,1.70
2022-12-24T09:10:39.933Z,1.50
2022-12-24T09:11:39.958Z,1.70
2022-12-24T09:12:39.935Z,1.50
2022-12-24T09:13:39.968Z,2.50
2022-12-24T09:14:39.920Z,2.60
2022-12-24T09:15:39.932Z,3.20
2022-12-24T09:16:39.983Z,3.20
2022-12-24T09:17:39.903Z,3.50
2022-12-24T09:18:40.088Z,2.90
2022-12-24T09:19:39.891Z,2.50
2022-12-24T09:20:45.744Z,2.10
2022-12-24T09:21:40.885Z,2.10
2022-12-24T09:22:39.859Z,2.00
2022-12-24T09:23:39.863Z,2.20
2022-12-24T09:24:39.873Z,2.10
2022-12-24T09:25:39.844Z,2.50
2022-12-24T09:26:40.028Z,2.40
2022-12-24T09:27:39.831Z,1.70
2022-12-24T09:28:39.850Z,2.10
2022-12-24T09:29:39.823Z,1.70
2022-12-24T09:30:39.821Z,1.70
2022-12-24T09:31:39.903Z,1.50
2022-12-24T09:32:39.805Z,1.40
2022-12-24T09:33:39.831Z,2.20
2022-12-24T09:34:39.785Z,2.20
2022-12-24T09:35:39.806Z,2.10
2022-12-24T09:36:39.777Z,1.90
2022-12-24T09:37:39.813Z,1.70
2022-12-24T09:38:39.778Z,1.70
2022-12-24T09:39:39.793Z,2.20
2022-12-24T09:40:39.754Z,2.40
2022-12-24T09:41:40.495Z,2.10
2022-12-24T09:42:39.764Z,2.30
2022-12-24T09:43:39.735Z,2.50
2022-12-24T09:44:39.740Z,2.60
2022-12-24T09:45:39.816Z,2.00
2022-12-24T09:46:39.720Z,2.20
2022-12-24T09:47:39.733Z,2.10
2022-12-24T09:48:39.733Z,2.30
2022-12-24T09:49:39.829Z,2.80
2022-12-24T09:50:39.733Z,2.50
2022-12-24T09:51:39.707Z,2.40
2022-12-24T09:52:39.702Z,2.50
2022-12-24T09:53:39.703Z,2.00
2022-12-24T09:54:43.050Z,1.90
2022-12-24T09:55:40.741Z,2.00
2022-12-24T09:56:39.695Z,1.70
2022-12-24T09:57:39.657Z,2.20
2022-12-24T09:58:39.662Z,2.50
2022-12-24T09:59:39.653Z,1.90
2022-12-24T10:00:43.195Z,2.30
2022-12-24T10:01:40.732Z,5.80
2022-12-24T10:02:39.703Z,6.30
2022-12-24T10:03:39.636Z,4.50
2022-12-24T10:04:39.603Z,3.70
2022-12-24T10:05:39.609Z,3.20
2022-12-24T10:06:39.613Z,3.10
2022-12-24T10:07:39.609Z,3.00
2022-12-24T10:08:39.590Z,3.00
2022-12-24T10:09:39.567Z,3.20
2022-12-24T10:10:39.568Z,3.10
2022-12-24T10:11:39.593Z,3.30
2022-12-24T10:12:43.117Z,3.10
2022-12-24T10:13:40.551Z,2.70
2022-12-24T10:14:39.534Z,4.10
2022-12-24T10:15:39.540Z,3.50
2022-12-24T10:16:39.573Z,3.20
2022-12-24T10:17:39.539Z,2.70
2022-12-24T10:18:42.966Z,2.50
2022-12-24T10:19:40.578Z,2.10
2022-12-24T10:20:39.501Z,2.90
2022-12-24T10:21:39.502Z,2.50
2022-12-24T10:22:39.496Z,2.60
2022-12-24T10:23:39.501Z,2.70
2022-12-24T10:24:43.421Z,2.70
2022-12-24T10:25:40.480Z,2.90
2022-12-24T10:26:39.488Z,3.00
2022-12-24T10:27:39.511Z,3.20
2022-12-24T10:28:39.460Z,2.70
2022-12-24T10:29:39.465Z,2.70
2022-12-24T10:30:39.494Z,2.90
2022-12-24T10:31:39.428Z,3.10
2022-12-24T10:32:39.435Z,2.50
2022-12-24T10:33:39.458Z,2.40
2022-12-24T10:34:39.411Z,2.90
2022-12-24T10:35:39.430Z,2.80
2022-12-24T10:36:39.397Z,3.10
2022-12-24T10:37:39.393Z,2.90
2022-12-24T10:38:39.391Z,2.90
2022-12-24T10:39:39.423Z,3.20
2022-12-24T10:40:39.372Z,2.90
2022-12-24T10:41:39.416Z,3.00
2022-12-24T10:42:42.115Z,3.00
2022-12-24T10:43:40.373Z,3.10
2022-12-24T10:44:39.361Z,2.60
2022-12-24T10:45:39.361Z,2.70
2022-12-24T10:46:39.460Z,3.00
2022-12-24T10:47:39.346Z,2.90
2022-12-24T10:48:42.369Z,2.50
2022-12-24T10:49:40.315Z,3.00
2022-12-24T10:50:39.334Z,3.40
2022-12-24T10:51:39.332Z,3.90
2022-12-24T10:52:39.316Z,2.90
2022-12-24T10:53:39.328Z,2.80
2022-12-24T10:54:39.543Z,2.90
2022-12-24T10:55:39.292Z,2.70
2022-12-24T10:56:39.276Z,3.20
2022-12-24T10:57:39.267Z,4.50
2022-12-24T10:58:39.280Z,4.40
2022-12-24T10:59:39.269Z,5.50
2022-12-24T11:00:39.242Z,5.60
2022-12-24T11:01:39.325Z,3.50
2022-12-24T11:02:39.320Z,3.50
2022-12-24T11:03:39.391Z,3.30
2022-12-24T11:04:39.228Z,3.00
2022-12-24T11:05:39.238Z,3.00
2022-12-24T11:06:40.812Z,2.70
2022-12-24T11:07:39.200Z,2.70
2022-12-24T11:08:39.197Z,3.10
2022-12-24T11:09:39.208Z,2.70
2022-12-24T11:10:39.182Z,2.80
2022-12-24T11:11:39.183Z,2.70
2022-12-24T11:12:39.175Z,3.20
2022-12-24T11:13:39.704Z,3.50
2022-12-24T11:14:39.178Z,3.00
2022-12-24T11:15:39.213Z,2.90
2022-12-24T11:16:39.145Z,2.90
2022-12-24T11:17:39.137Z,3.20
2022-12-24T11:18:39.150Z,2.90
2022-12-24T11:19:39.127Z,2.80
2022-12-24T11:20:39.155Z,3.20
2022-12-24T11:21:39.107Z,2.90
2022-12-24T11:22:39.102Z,2.80
2022-12-24T11:23:39.132Z,3.10
2022-12-24T11:24:39.612Z,2.90
2022-12-24T11:25:39.086Z,3.30
2022-12-24T11:26:39.080Z,3.90
2022-12-24T11:27:39.073Z,4.20
2022-12-24T11:28:39.072Z,3.50
2022-12-24T11:29:39.067Z,3.10
2022-12-24T11:30:39.143Z,2.70
2022-12-24T11:31:39.196Z,3.00
2022-12-24T11:32:39.038Z,3.60
2022-12-24T11:33:39.054Z,3.20
2022-12-24T11:34:39.025Z,2.70
2022-12-24T11:35:39.031Z,2.70
2022-12-24T11:36:39.033Z,2.70
2022-12-24T11:37:39.008Z,3.00
2022-12-24T11:38:39.020Z,3.50
2022-12-24T11:39:38.984Z,3.20
2022-12-24T11:40:39.005Z,3.20
2022-12-24T11:41:38.983Z,3.20
2022-12-24T11:42:38.975Z,3.20
2022-12-24T11:43:38.985Z,3.70
2022-12-24T11:44:38.984Z,3.40
2022-12-24T11:45:38.956Z,3.20
2022-12-24T11:46:38.988Z,2.90
2022-12-24T11:47:38.952Z,3.70
2022-12-24T11:48:38.966Z,3.90
2022-12-24T11:49:38.926Z,3.50
2022-12-24T11:50:38.919Z,3.80
2022-12-24T11:51:38.969Z,4.60
2022-12-24T11:52:38.899Z,3.30
2022-12-24T11:53:38.899Z,4.60
2022-12-24T11:54:38.886Z,4.60
2022-12-24T11:55:38.893Z,3.90
2022-12-24T11:56:38.882Z,3.40
2022-12-24T11:57:38.901Z,3.40
2022-12-24T11:58:38.872Z,3.30
2022-12-24T11:59:38.881Z,3.60
2022-12-24T12:00:38.850Z,4.90
2022-12-24T12:01:39.092Z,4.70
2022-12-24T12:02:38.873Z,4.70
2022-12-24T12:03:38.887Z,3.90
2022-12-24T12:04:38.864Z,4.10
2022-12-24T12:05:38.823Z,4.30
2022-12-24T12:06:38.828Z,3.60
2022-12-24T12:07:38.884Z,3.40
2022-12-24T12:08:38.811Z,3.30
2022-12-24T12:09:38.819Z,3.90
2022-12-24T12:10:38.803Z,4.10
2022-12-24T12:11:38.792Z,4.00
2022-12-24T12:12:38.783Z,5.10
2022-12-24T12:13:38.782Z,5.20
2022-12-24T12:14:45.812Z,5.90
2022-12-24T12:15:38.794Z,5.70
2022-12-24T12:16:38.807Z,5.10
2022-12-24T12:17:38.751Z,5.00
2022-12-24T12:18:38.741Z,4.00
2022-12-24T12:19:38.758Z,4.10
2022-12-24T12:20:38.728Z,3.30
2022-12-24T12:21:38.755Z,4.10
2022-12-24T12:22:38.723Z,3.80
2022-12-24T12:23:38.715Z,3.90
2022-12-24T12:24:38.713Z,4.80
2022-12-24T12:25:38.715Z,4.20
2022-12-24T12:26:38.713Z,4.00
2022-12-24T12:27:38.700Z,4.00
2022-12-24T12:28:38.690Z,3.70
2022-12-24T12:29:38.680Z,3.70
2022-12-24T12:30:38.672Z,3.40
2022-12-24T12:31:38.746Z,3.80
2022-12-24T12:32:38.713Z,3.50
2022-12-24T12:33:38.645Z,3.30
2022-12-24T12:34:38.654Z,3.00
2022-12-24T12:35:38.640Z,3.30
2022-12-24T12:36:38.636Z,3.40
2022-12-24T12:37:38.660Z,4.00
2022-12-24T12:38:38.635Z,4.30
2022-12-24T12:39:38.627Z,3.90
2022-12-24T12:40:38.604Z,3.20
2022-12-24T12:41:38.603Z,3.60
2022-12-24T12:42:38.609Z,4.10
2022-12-24T12:43:38.606Z,3.20
2022-12-24T12:44:38.624Z,3.00
2022-12-24T12:45:38.580Z,3.00
2022-12-24T12:46:38.679Z,3.50
2022-12-24T12:47:38.589Z,3.00
2022-12-24T12:48:38.573Z,3.40
2022-12-24T12:49:38.553Z,3.10
2022-12-24T12:50:38.539Z,3.30
2022-12-24T12:51:38.577Z,3.00
2022-12-24T12:52:38.561Z,3.50
2022-12-24T12:53:38.551Z,3.50
2022-12-24T12:54:38.537Z,3.30
2022-12-24T12:55:38.527Z,3.50
2022-12-24T12:56:38.536Z,3.60
2022-12-24T12:57:38.516Z,3.10
2022-12-24T12:58:38.553Z,3.70
2022-12-24T12:59:38.509Z,4.50
2022-12-24T13:00:38.550Z,4.10
2022-12-24T13:01:38.695Z,3.30
2022-12-24T13:02:38.529Z,3.90
2022-12-24T13:03:38.476Z,3.20
2022-12-24T13:04:38.458Z,3.40
2022-12-24T13:05:38.476Z,2.90
2022-12-24T13:06:38.529Z,3.10
2022-12-24T13:07:38.468Z,3.00
2022-12-24T13:08:38.443Z,3.20
2022-12-24T13:09:38.461Z,3.30
2022-12-24T13:10:38.429Z,3.20
2022-12-24T13:11:38.408Z,2.60
2022-12-24T13:12:38.431Z,3.00
2022-12-24T13:13:38.407Z,2.70
2022-12-24T13:14:38.390Z,2.80
2022-12-24T13:15:38.407Z,2.60
2022-12-24T13:16:38.436Z,2.90
2022-12-24T13:17:38.424Z,3.00
2022-12-24T13:18:38.378Z,2.80
2022-12-24T13:19:38.616Z,3.90